createdAt,value
2022-10-12T00:00:30.205Z,101296.75
2022-10-12T00:03:00.478Z,101301.13
2022-10-12T00:05:31.553Z,101298.91
2022-10-12T00:08:02.317Z,101305.81
2022-10-12T00:10:33.984Z,101311.84
2022-10-12T00:13:04.914Z,101311.91
2022-10-12T00:15:39.091Z,101312.16
2022-10-12T00:18:10.394Z,101318.47
2022-10-12T00:20:42.258Z,101317.94
2022-10-12T00:23:13.379Z,101328.69
2022-10-12T00:25:45.116Z,101325.63
2022-10-12T00:28:15.826Z,101323.47
2022-10-12T00:30:46.486Z,101330.63
2022-10-12T00:33:17.147Z,101327.25
2022-10-12T00:35:47.733Z,101330.84
2022-10-12T00:38:18.529Z,101334.41
2022-10-12T00:40:49.316Z,101335.53
2022-10-12T00:43:32.346Z,101340.25
2022-10-12T00:46:05.113Z,101345.97
2022-10-12T00:48:35.960Z,101341.56
2022-10-12T00:51:09.087Z,101343.81
2022-10-12T00:53:48.819Z,101350.94
2022-10-12T00:56:25.252Z,101339.94
2022-10-12T00:58:58.691Z,101338.28
2022-10-12T01:01:30.459Z,101341.56
2022-10-12T01:04:01.313Z,101349.00
2022-10-12T01:06:34.143Z,101339.34
2022-10-12T01:09:05.165Z,101343.22
2022-10-12T01:11:36.014Z,101343.22
2022-10-12T01:14:06.960Z,101343.22
2022-10-12T01:16:46.201Z,101343.72
2022-10-12T01:19:38.427Z,101353.63
2022-10-12T01:22:14.858Z,101352.81
2022-10-12T01:24:55.744Z,101355.56
2022-10-12T01:27:47.832Z,101353.13
2022-10-12T01:30:21.072Z,101358.63
2022-10-12T01:33:13.039Z,101354.75
2022-10-12T01:36:15.448Z,101346.50
2022-10-12T01:39:02.852Z,101349.25
2022-10-12T01:41:58.377Z,101353.63
2022-10-12T01:44:30.471Z,101344.25
2022-10-12T01:47:01.581Z,101355.28
2022-10-12T01:49:36.431Z,101359.38
2022-10-12T01:52:32.203Z,101364.88
2022-10-12T01:55:27.860Z,101364.56
2022-10-12T01:58:34.546Z,101368.97
2022-10-12T02:01:34.667Z,101366.72
2022-10-12T02:04:31.029Z,101363.97
2022-10-12T02:07:10.969Z,101360.41
2022-10-12T02:09:43.107Z,101358.97
2022-10-12T02:12:22.548Z,101355.44
2022-10-12T02:15:00.912Z,101353.47
2022-10-12T02:17:33.402Z,101348.75
2022-10-12T02:20:06.614Z,101350.72
2022-10-12T02:22:41.939Z,101363.06
2022-10-12T02:25:18.253Z,101362.25
2022-10-12T02:27:58.529Z,101356.75
2022-10-12T02:30:30.829Z,101355.63
2022-10-12T02:33:32.029Z,101361.94
2022-10-12T02:36:08.972Z,101364.72
2022-10-12T02:38:56.085Z,101360.03
2022-10-12T02:41:32.847Z,101354.50
2022-10-12T02:44:07.301Z,101360.84
2022-10-12T02:46:39.236Z,101359.72
2022-10-12T02:49:11.183Z,101361.66
2022-10-12T02:51:43.545Z,101366.06
2022-10-12T02:54:15.390Z,101365.44
2022-10-12T02:56:48.559Z,101362.19
2022-10-12T02:59:21.770Z,101350.53
2022-10-12T03:01:52.828Z,101356.38
2022-10-12T03:04:23.607Z,101357.16
2022-10-12T03:06:54.472Z,101356.88
2022-10-12T03:09:25.456Z,101358.81
2022-10-12T03:11:56.097Z,101356.06
2022-10-12T03:14:29.633Z,101356.56
2022-10-12T03:17:00.465Z,101358.53
2022-10-12T03:19:31.257Z,101359.03
2022-10-12T03:22:03.058Z,101354.34
2022-10-12T03:24:33.915Z,101351.59
2022-10-12T03:27:04.669Z,101350.97
2022-10-12T03:29:35.414Z,101346.00
2022-10-12T03:32:05.914Z,101338.84
2022-10-12T03:34:36.749Z,101340.16
2022-10-12T03:37:07.440Z,101336.28
2022-10-12T03:39:38.312Z,101331.09
2022-10-12T03:42:09.006Z,101328.00
2022-10-12T03:44:40.028Z,101326.69
2022-10-12T03:47:10.707Z,101330.56
2022-10-12T03:49:41.461Z,101324.44
2022-10-12T03:52:12.279Z,101329.66
2022-10-12T03:54:42.990Z,101320.25
2022-10-12T03:57:13.709Z,101324.44
2022-10-12T03:59:44.670Z,101314.53
2022-10-12T04:02:17.126Z,101310.66
2022-10-12T04:04:48.167Z,101304.03
2022-10-12T04:07:18.878Z,101296.56
2022-10-12T04:09:50.291Z,101304.03
2022-10-12T04:12:20.934Z,101306.16
2022-10-12T04:14:51.815Z,101292.09
2022-10-12T04:17:22.736Z,101292.88
2022-10-12T04:19:53.366Z,101281.03
2022-10-12T04:22:24.156Z,101275.53
2022-10-12T04:24:55.100Z,101273.56
2022-10-12T04:27:26.052Z,101273.56
2022-10-12T04:29:56.876Z,101258.66
2022-10-12T04:32:27.572Z,101251.72
2022-10-12T04:34:58.221Z,101244.88
2022-10-12T04:37:30.625Z,101237.44
2022-10-12T04:40:01.205Z,101239.06
2022-10-12T04:42:32.055Z,101235.69
2022-10-12T04:45:02.769Z,101236.53
2022-10-12T04:47:33.376Z,101229.03
2022-10-12T04:50:04.177Z,101228.78
2022-10-12T04:52:35.312Z,101229.59
2022-10-12T04:55:06.525Z,101212.75
2022-10-12T04:57:37.516Z,101221.84
2022-10-12T05:00:09.779Z,101212.75
2022-10-12T05:02:40.913Z,101206.41
2022-10-12T05:05:12.387Z,101203.97
2022-10-12T05:07:42.832Z,101203.34
2022-10-12T05:10:13.783Z,101201.41
2022-10-12T05:12:45.720Z,101189.84
2022-10-12T05:15:16.439Z,101181.59
2022-10-12T05:17:47.118Z,101176.06
2022-10-12T05:20:17.882Z,101177.69
2022-10-12T05:22:48.606Z,101168.31
2022-10-12T05:25:21.802Z,101159.72
2022-10-12T05:27:52.489Z,101166.06
2022-10-12T05:30:23.155Z,101156.66
2022-10-12T05:32:54.633Z,101156.06
2022-10-12T05:35:27.090Z,101144.19
2022-10-12T05:37:57.855Z,101142.25
2022-10-12T05:40:29.342Z,101142.75
2022-10-12T05:43:00.124Z,101142.75
2022-10-12T05:45:30.813Z,101137.75
2022-10-12T05:48:01.512Z,101131.09
2022-10-12T05:50:32.023Z,101127.03
2022-10-12T05:53:02.737Z,101117.31
2022-10-12T05:55:33.523Z,101115.88
2022-10-12T05:58:04.141Z,101109.53
2022-10-12T06:00:36.937Z,101112.81
2022-10-12T06:03:07.697Z,101113.59
2022-10-12T06:05:38.361Z,101105.34
2022-10-12T06:08:12.076Z,101105.34
2022-10-12T06:10:48.826Z,101104.53
2022-10-12T06:13:22.874Z,101094.28
2022-10-12T06:15:54.325Z,101093.69
2022-10-12T06:18:25.406Z,101084.28
2022-10-12T06:21:28.513Z,101083.16
2022-10-12T06:23:48.064Z,101069.97
2022-10-12T06:26:19.164Z,101074.06
2022-10-12T06:28:50.070Z,101056.19
2022-10-12T06:31:20.907Z,101063.34
2022-10-12T06:33:53.587Z,101049.53
2022-10-12T06:36:26.993Z,101045.34
2022-10-12T06:38:57.867Z,101041.16
2022-10-12T06:41:28.614Z,101032.53
2022-10-12T06:43:59.248Z,101031.75
2022-10-12T06:46:30.123Z,101024.59
2022-10-12T06:49:00.808Z,101022.34
2022-10-12T06:51:32.145Z,101018.25
2022-10-12T06:54:02.606Z,101013.56
2022-10-12T06:56:34.065Z,101011.09
2022-10-12T06:59:04.527Z,101010.28
2022-10-12T07:01:35.369Z,101008.66
2022-10-12T07:04:06.150Z,101007.53
2022-10-12T07:06:38.522Z,101003.97
2022-10-12T07:09:09.315Z,100992.44
2022-10-12T07:11:40.100Z,100992.94
2022-10-12T07:14:11.098Z,100984.66
2022-10-12T07:16:41.930Z,100971.66
2022-10-12T07:19:12.624Z,100978.81
2022-10-12T07:21:44.632Z,100977.97
2022-10-12T07:24:16.181Z,100970.53
2022-10-12T07:26:46.994Z,100968.59
2022-10-12T07:29:17.647Z,100965.03
2022-10-12T07:31:51.876Z,100965.53
2022-10-12T07:34:22.831Z,100958.88
2022-10-12T07:36:59.416Z,100945.38
2022-10-12T07:39:30.889Z,100950.59
2022-10-12T07:42:01.542Z,100943.44
2022-10-12T07:44:33.223Z,100941.81
2022-10-12T07:47:03.984Z,100945.38
2022-10-12T07:49:35.371Z,100939.06
2022-10-12T07:52:05.741Z,100930.78
2022-10-12T07:54:36.429Z,100928.03
2022-10-12T07:57:07.239Z,100916.66
2022-10-12T07:59:37.993Z,100921.88
2022-10-12T08:02:08.799Z,100915.84
2022-10-12T08:04:39.466Z,100915.84
2022-10-12T08:07:10.370Z,100912.47
2022-10-12T08:09:41.074Z,100905.31
2022-10-12T08:12:14.012Z,100901.13
2022-10-12T08:14:44.771Z,100908.59
2022-10-12T08:17:15.698Z,100894.28
2022-10-12T08:19:46.415Z,100892.50
2022-10-12T08:22:17.146Z,100890.88
2022-10-12T08:24:47.800Z,100884.56
2022-10-12T08:27:20.895Z,100887.66
2022-10-12T08:29:51.707Z,100884.38
2022-10-12T08:32:22.472Z,100881.78
2022-10-12T08:34:53.641Z,100883.44
2022-10-12T08:37:24.504Z,100887.66
2022-10-12T08:39:56.827Z,100879.84
2022-10-12T08:42:53.444Z,100886.19
2022-10-12T08:45:44.505Z,100888.13
2022-10-12T08:48:45.595Z,100887.81
2022-10-12T08:51:28.997Z,100889.44
2022-10-12T08:54:05.534Z,100888.94
2022-10-12T08:56:42.269Z,100880.66
2022-10-12T08:59:16.390Z,100883.09
2022-10-12T09:01:47.033Z,100884.22
2022-10-12T09:04:35.515Z,100889.75
2022-10-12T09:07:31.054Z,100888.63
2022-10-12T09:10:27.776Z,100891.69
2022-10-12T09:13:40.205Z,100891.69
2022-10-12T09:16:30.050Z,100893.63
2022-10-12T09:19:09.961Z,100888.13
2022-10-12T09:21:44.843Z,100888.44
2022-10-12T09:24:33.555Z,100892.50
2022-10-12T09:27:19.895Z,100892.84
2022-10-12T09:29:54.209Z,100894.78
2022-10-12T09:32:40.378Z,100895.59
2022-10-12T09:35:16.586Z,100897.22
2022-10-12T09:37:53.110Z,100895.59
2022-10-12T09:40:33.675Z,100892.84
2022-10-12T09:43:06.267Z,100892.84
2022-10-12T09:45:38.362Z,100901.63
2022-10-12T09:48:13.212Z,100904.66
2022-10-12T09:50:54.194Z,100905.81
2022-10-12T09:53:34.379Z,100895.09
2022-10-12T09:56:08.223Z,100893.16
2022-10-12T09:59:03.667Z,100903.06
2022-10-12T10:01:37.094Z,100912.16
2022-10-12T10:04:26.982Z,100904.66
2022-10-12T10:06:59.615Z,100901.91
2022-10-12T10:09:38.315Z,100898.69
2022-10-12T10:12:26.816Z,100896.72
2022-10-12T10:15:00.190Z,100897.56
2022-10-12T10:17:34.426Z,100897.22
2022-10-12T10:20:08.843Z,100898.03
2022-10-12T10:22:39.659Z,100901.91
2022-10-12T10:25:22.778Z,100903.53
2022-10-12T10:28:12.849Z,100908.25
2022-10-12T10:30:43.860Z,100911.81
2022-10-12T10:33:21.150Z,100924.00
2022-10-12T10:36:07.336Z,100917.66
2022-10-12T10:38:59.807Z,100924.31
2022-10-12T10:41:50.837Z,100933.09
2022-10-12T10:44:32.780Z,100936.97
2022-10-12T10:47:15.408Z,100942.50
2022-10-12T10:49:59.941Z,100945.59
2022-10-12T10:52:37.070Z,100947.53
2022-10-12T10:55:13.751Z,100954.66
2022-10-12T10:58:04.372Z,100967.66
2022-10-12T11:00:40.545Z,100967.34
2022-10-12T11:03:33.628Z,100963.44
2022-10-12T11:06:35.679Z,100958.72
2022-10-12T11:09:46.574Z,100964.25
2022-10-12T11:12:31.095Z,100965.09
2022-10-12T11:15:24.233Z,100961.19
2022-10-12T11:18:22.785Z,100974.16
2022-10-12T11:21:07.861Z,100971.72
2022-10-12T11:23:52.636Z,100964.25
2022-10-12T11:26:46.222Z,100967.34
2022-10-12T11:29:20.559Z,100968.63
2022-10-12T11:32:24.298Z,100966.53
2022-10-12T11:35:05.842Z,100972.06
2022-10-12T11:37:41.803Z,100975.63
2022-10-12T11:41:00.205Z,100982.75
2022-10-12T11:43:35.313Z,100971.41
2022-10-12T11:46:10.865Z,100992.69
2022-10-12T11:48:55.661Z,100983.56
2022-10-12T11:51:26.464Z,101002.09
2022-10-12T11:54:08.591Z,101004.00
2022-10-12T11:56:51.707Z,101009.53
2022-10-12T11:59:40.002Z,101012.63
2022-10-12T12:02:48.710Z,101017.81
2022-10-12T12:05:20.169Z,101024.16
2022-10-12T12:07:54.401Z,101034.38
2022-10-12T12:10:31.820Z,101034.69
2022-10-12T12:13:17.712Z,101037.78
2022-10-12T12:15:52.337Z,101046.06
2022-10-12T12:18:25.613Z,101053.81
2022-10-12T12:21:13.925Z,101058.22
2022-10-12T12:23:59.679Z,101069.53
2022-10-12T12:26:34.086Z,101073.13
2022-10-12T12:29:30.720Z,101082.22
2022-10-12T12:32:03.348Z,101084.69
2022-10-12T12:34:34.101Z,101084.69
2022-10-12T12:37:15.517Z,101086.31
2022-10-12T12:39:46.579Z,101091.00
2022-10-12T12:42:26.104Z,101085.81
2022-10-12T12:44:57.216Z,101088.84
2022-10-12T12:47:54.222Z,101092.44
2022-10-12T12:50:40.582Z,101101.03
2022-10-12T12:53:21.895Z,101101.84
2022-10-12T12:56:17.787Z,101107.66
2022-10-12T12:59:11.144Z,101105.75
2022-10-12T13:02:26.066Z,101104.91
2022-10-12T13:05:35.560Z,101110.41
2022-10-12T13:08:06.263Z,101116.78
2022-10-12T13:11:21.146Z,101112.56
2022-10-12T13:14:22.822Z,101109.00
2022-10-12T13:19:47.392Z,101126.06
2022-10-12T13:22:36.639Z,101125.84
2022-10-12T13:25:10.712Z,101127.19
2022-10-12T13:27:53.650Z,101117.56
2022-10-12T13:30:37.396Z,101121.69
2022-10-12T13:34:45.470Z,101118.41
2022-10-12T13:37:18.346Z,101123.41
2022-10-12T13:39:49.903Z,101126.38
2022-10-12T13:42:33.858Z,101128.63
2022-10-12T13:45:10.461Z,101139.34
2022-10-12T13:47:46.371Z,101145.38
2022-10-12T13:50:22.565Z,101143.53
2022-10-12T13:52:57.328Z,101139.66
2022-10-12T13:55:29.673Z,101148.44
2022-10-12T13:58:00.367Z,101144.03
2022-10-12T14:00:39.250Z,101158.16
2022-10-12T14:03:10.032Z,101159.81
2022-10-12T14:05:49.739Z,101160.31
2022-10-12T14:08:29.136Z,101168.28
2022-10-12T14:11:02.481Z,101154.78
2022-10-12T14:13:37.124Z,101174.13
2022-10-12T14:16:08.884Z,101168.59
2022-10-12T14:18:47.659Z,101173.59
2022-10-12T14:21:19.318Z,101166.44
2022-10-12T14:24:01.987Z,101169.19
2022-10-12T14:26:40.901Z,101170.31
2022-10-12T14:29:32.064Z,101169.72
2022-10-12T14:32:09.979Z,101173.59
2022-10-12T14:34:44.106Z,101179.72
2022-10-12T14:37:20.819Z,101178.94
2022-10-12T14:39:53.261Z,101179.53
2022-10-12T14:42:35.498Z,101186.69
2022-10-12T14:45:09.941Z,101188.53
2022-10-12T14:47:43.538Z,101189.31
2022-10-12T14:50:21.389Z,101188.53
2022-10-12T14:52:55.487Z,101195.78
2022-10-12T14:55:35.108Z,101197.72
2022-10-12T14:58:10.656Z,101198.84
2022-10-12T15:00:42.059Z,101209.88
2022-10-12T15:03:13.094Z,101210.69
2022-10-12T15:05:43.965Z,101219.47
2022-10-12T15:08:14.670Z,101211.72
2022-10-12T15:10:48.626Z,101209.75
2022-10-12T15:13:19.474Z,101210.28
2022-10-12T15:15:51.261Z,101213.03
2022-10-12T15:18:22.128Z,101218.25
2022-10-12T15:20:54.407Z,101224.91
2022-10-12T15:23:25.566Z,101230.94
2022-10-12T15:26:02.491Z,101221.03
2022-10-12T15:28:34.605Z,101228.97
2022-10-12T15:31:17.143Z,101221.81
2022-10-12T15:33:48.594Z,101223.78
2022-10-12T15:36:19.292Z,101210.59
2022-10-12T15:38:50.070Z,101215.03
2022-10-12T15:41:23.925Z,101210.34
2022-10-12T15:43:54.631Z,101208.53
2022-10-12T15:46:25.300Z,101210.53
2022-10-12T15:48:56.682Z,101204.66
2022-10-12T15:51:28.249Z,101204.66
2022-10-12T15:53:59.202Z,101198.28
2022-10-12T15:56:30.696Z,101191.56
2022-10-12T15:59:01.834Z,101199.66
2022-10-12T16:01:32.828Z,101198.72
2022-10-12T16:04:04.471Z,101194.22
2022-10-12T16:06:36.042Z,101194.22
2022-10-12T16:09:06.945Z,101195.44
2022-10-12T16:11:37.616Z,101193.19
2022-10-12T16:14:09.218Z,101195.44
2022-10-12T16:16:39.964Z,101190.75
2022-10-12T16:19:11.257Z,101190.13
2022-10-12T16:21:41.655Z,101194.22
2022-10-12T16:24:12.435Z,101197.91
2022-10-12T16:26:45.111Z,101191.56
2022-10-12T16:29:16.097Z,101191.47
2022-10-12T16:31:47.024Z,101192.88
2022-10-12T16:34:18.007Z,101193.81
2022-10-12T16:36:48.795Z,101189.22
2022-10-12T16:39:19.454Z,101187.50
2022-10-12T16:41:50.283Z,101189.53
2022-10-12T16:44:21.139Z,101192.16
2022-10-12T16:46:51.834Z,101196.06
2022-10-12T16:49:22.600Z,101196.19
2022-10-12T16:51:53.455Z,101197.69
2022-10-12T16:54:25.903Z,101196.88
2022-10-12T16:56:58.135Z,101188.28
2022-10-12T16:59:29.702Z,101191.97
2022-10-12T17:02:00.534Z,101195.47
2022-10-12T17:04:31.352Z,101196.91
2022-10-12T17:07:02.208Z,101191.50
2022-10-12T17:09:33.575Z,101187.09
2022-10-12T17:12:06.936Z,101178.94
2022-10-12T17:14:37.798Z,101183.00
2022-10-12T17:17:09.248Z,101181.38
2022-10-12T17:19:42.598Z,101182.19
2022-10-12T17:22:16.413Z,101181.06
2022-10-12T17:24:48.034Z,101173.41
2022-10-12T17:27:19.431Z,101176.78
2022-10-12T17:29:49.790Z,101162.19
2022-10-12T17:32:22.080Z,101170.75
2022-10-12T17:34:52.998Z,101161.34
2022-10-12T17:37:24.709Z,101159.19
2022-10-12T17:39:55.570Z,101156.16
2022-10-12T17:42:27.537Z,101164.09
2022-10-12T17:44:58.482Z,101149.31
2022-10-12T17:47:29.413Z,101152.66
2022-10-12T17:50:00.252Z,101155.13
2022-10-12T17:52:31.085Z,101150.44
2022-10-12T17:55:03.690Z,101147.69
2022-10-12T17:57:34.973Z,101154.50
2022-10-12T18:00:07.235Z,101146.56
2022-10-12T18:02:41.742Z,101142.97
2022-10-12T18:05:12.944Z,101142.16
2022-10-12T18:07:43.900Z,101145.19
2022-10-12T18:10:14.840Z,101147.69
2022-10-12T18:12:47.830Z,101140.78
2022-10-12T18:15:19.894Z,101134.16
2022-10-12T18:17:50.689Z,101125.38
2022-10-12T18:20:21.642Z,101143.03
2022-10-12T18:22:52.271Z,101126.19
2022-10-12T18:25:23.077Z,101119.66
2022-10-12T18:27:54.909Z,101129.25
2022-10-12T18:30:25.700Z,101119.66
2022-10-12T18:32:56.591Z,101114.97
2022-10-12T18:35:27.486Z,101120.50
2022-10-12T18:37:58.700Z,101126.00
2022-10-12T18:40:30.770Z,101129.06
2022-10-12T18:43:01.797Z,101131.00
2022-10-12T18:45:32.570Z,101127.59
2022-10-12T18:48:03.782Z,101129.06
2022-10-12T18:50:34.549Z,101131.28
2022-10-12T18:53:05.801Z,101124.13
2022-10-12T18:55:40.919Z,101122.72
2022-10-12T18:58:11.856Z,101120.25
2022-10-12T19:00:43.937Z,101122.50
2022-10-12T19:03:17.964Z,101122.22
2022-10-12T19:05:48.793Z,101118.03
2022-10-12T19:08:19.639Z,101113.63
2022-10-12T19:10:50.410Z,101110.69
2022-10-12T19:13:22.695Z,101105.97
2022-10-12T19:15:53.366Z,101104.03
2022-10-12T19:18:24.296Z,101109.22
2022-10-12T19:20:54.994Z,101106.78
2022-10-12T19:23:25.829Z,101103.72
2022-10-12T19:25:56.917Z,101097.69
2022-10-12T19:28:27.867Z,101098.81
2022-10-12T19:30:58.465Z,101090.53
2022-10-12T19:33:31.374Z,101095.88
2022-10-12T19:36:02.178Z,101087.78
2022-10-12T19:38:34.284Z,101085.34
2022-10-12T19:41:05.656Z,101088.09
2022-10-12T19:43:36.606Z,101086.97
2022-10-12T19:46:09.815Z,101085.66
2022-10-12T19:48:41.812Z,101084.03
2022-10-12T19:51:16.345Z,101091.19
2022-10-12T19:53:48.009Z,101085.16
2022-10-12T19:56:23.609Z,101079.94
2022-10-12T19:58:55.791Z,101086.28
2022-10-12T20:01:35.476Z,101087.06
2022-10-12T20:04:12.520Z,101096.19
2022-10-12T20:06:44.790Z,101085.94
2022-10-12T20:09:15.740Z,101090.97
2022-10-12T20:11:46.514Z,101089.53
2022-10-12T20:14:17.179Z,101082.69
2022-10-12T20:16:48.042Z,101078.28
2022-10-12T20:19:19.031Z,101078.00
2022-10-12T20:21:49.779Z,101080.25
2022-10-12T20:24:20.609Z,101076.38
2022-10-12T20:26:51.399Z,101077.41
2022-10-12T20:29:22.150Z,101070.03
2022-10-12T20:31:52.942Z,101068.91
2022-10-12T20:34:23.487Z,101066.78
2022-10-12T20:36:54.286Z,101056.56
2022-10-12T20:39:26.498Z,101059.81
2022-10-12T20:41:57.147Z,101069.22
2022-10-12T20:44:27.843Z,101055.75
2022-10-12T20:46:58.584Z,101062.91
2022-10-12T20:49:29.273Z,101056.56
2022-10-12T20:52:00.948Z,101056.66
2022-10-12T20:54:32.682Z,101052.16
2022-10-12T20:57:03.376Z,101059.91
2022-10-12T20:59:34.251Z,101062.59
2022-10-12T21:02:04.848Z,101050.00
2022-10-12T21:04:38.416Z,101053.00
2022-10-12T21:07:09.370Z,101053.91
2022-10-12T21:09:40.212Z,101042.88
2022-10-12T21:12:12.274Z,101045.16
2022-10-12T21:14:42.977Z,101035.72
2022-10-12T21:17:13.558Z,101031.34
2022-10-12T21:19:44.319Z,101037.34
2022-10-12T21:22:14.953Z,101037.34
2022-10-12T21:24:45.669Z,101034.41
2022-10-12T21:27:16.448Z,101030.84
2022-10-12T21:29:47.155Z,101028.59
2022-10-12T21:32:18.832Z,101021.13
2022-10-12T21:34:51.040Z,101024.50
2022-10-12T21:37:21.850Z,101020.94
2022-10-12T21:39:54.457Z,101023.09
2022-10-12T21:42:25.367Z,101020.63
2022-10-12T21:44:56.132Z,101024.22
2022-10-12T21:47:26.652Z,101012.66
2022-10-12T21:49:57.408Z,101007.16
2022-10-12T21:52:28.261Z,101012.06
2022-10-12T21:54:58.969Z,101011.41
2022-10-12T21:57:33.925Z,101015.63
2022-10-12T22:00:04.681Z,101012.88
2022-10-12T22:02:44.374Z,101012.34
2022-10-12T22:05:14.998Z,101005.72
2022-10-12T22:07:46.027Z,101009.59
2022-10-12T22:10:16.774Z,101012.66
2022-10-12T22:12:47.409Z,101008.88
2022-10-12T22:15:18.275Z,101007.44
2022-10-12T22:17:48.985Z,101008.56
2022-10-12T22:20:19.973Z,101011.31
2022-10-12T22:22:55.878Z,101009.69
2022-10-12T22:25:26.838Z,101014.31
2022-10-12T22:27:57.810Z,101017.88
2022-10-12T22:30:30.122Z,101026.47
2022-10-12T22:33:00.783Z,101022.88
2022-10-12T22:35:33.742Z,101019.31
2022-10-12T22:38:04.511Z,101026.75
2022-10-12T22:40:35.346Z,101029.00
2022-10-12T22:43:06.187Z,101033.69
2022-10-12T22:45:37.061Z,101029.00
2022-10-12T22:48:09.736Z,101032.59
2022-10-12T22:50:40.502Z,101033.09
2022-10-12T22:53:14.622Z,101043.09
2022-10-12T22:55:47.017Z,101052.69
2022-10-12T22:58:18.539Z,101054.94
2022-10-12T23:00:49.799Z,101053.09
2022-10-12T23:03:20.635Z,101065.75
2022-10-12T23:05:52.406Z,101062.38
2022-10-12T23:08:23.383Z,101065.75
2022-10-12T23:10:54.172Z,101074.44
2022-10-12T23:13:25.239Z,101072.69
2022-10-12T23:15:56.030Z,101080.75
2022-10-12T23:18:26.862Z,101085.44
2022-10-12T23:20:57.740Z,101083.81
2022-10-12T23:23:28.583Z,101097.06
2022-10-12T23:26:04.036Z,101095.72
2022-10-12T23:28:36.368Z,101110.91
2022-10-12T23:31:11.208Z,101114.19
2022-10-12T23:33:42.134Z,101114.78
2022-10-12T23:36:19.816Z,101117.88
2022-10-12T23:38:50.924Z,101114.28
2022-10-12T23:41:21.770Z,101117.88
2022-10-12T23:43:52.746Z,101120.09
2022-10-12T23:46:23.549Z,101116.50
2022-10-12T23:48:55.476Z,101117.34
2022-10-12T23:51:26.203Z,101114.00
2022-10-12T23:53:56.911Z,101123.56
2022-10-12T23:56:28.059Z,101122.84
2022-10-12T23:58:58.741Z,101132.75
